Time;durP1;ratioP1;P1;durP2;ratioP2;P2;SDS_P1;SDS_P2;PMS_P1;PMS_P2;Temp;Humidity;BMP_temperature;BMP_pressure;BME280_temperature;BME280_humidity;BME280_pressure;Samples;Min_cycle;Max_cycle;Signal;HPM_P1;HPM_P2
2022/09/15 00:00:54;;;;;;;12.70;8.23;;;;;;;;;;5048148;28;20195;-76
2022/09/15 00:03:24;;;;;;;10.53;8.73;;;;;;;;;;5056264;28;20219;-76
2022/09/15 00:05:53;;;;;;;14.60;8.60;;;;;;;;;;5057014;28;20233;-76
2022/09/15 00:08:21;;;;;;;13.63;9.57;;;;;;;;;;5048680;28;20239;-76
2022/09/15 00:10:51;;;;;;;13.23;9.97;;;;;;;;;;5041217;28;20597;-76
2022/09/15 00:13:20;;;;;;;13.60;9.13;;;;;;;;;;5056679;28;20284;-77
2022/09/15 00:15:49;;;;;;;13.13;9.17;;;;;;;;;;5056532;28;20687;-76
2022/09/15 00:18:18;;;;;;;11.60;8.83;;;;;;;;;;5048973;28;20291;-76
2022/09/15 00:20:47;;;;;;;13.67;9.37;;;;;;;;;;5051449;28;20628;-76
2022/09/15 00:23:16;;;;;;;15.03;10.83;;;;;;;;;;5049466;28;20299;-76
2022/09/15 00:25:45;;;;;;;15.60;10.43;;;;;;;;;;5037481;28;20290;-76
2022/09/15 00:28:14;;;;;;;15.73;10.80;;;;;;;;;;5047539;28;20295;-75
2022/09/15 00:30:43;;;;;;;16.43;10.63;;;;;;;;;;5056005;28;20652;-76
2022/09/15 00:33:12;;;;;;;16.07;11.37;;;;;;;;;;5053539;28;20207;-76
2022/09/15 00:35:41;;;;;;;16.37;11.53;;;;;;;;;;5055463;28;20249;-76
2022/09/15 00:38:12;;;;;;;15.63;11.57;;;;;;;;;;5049877;28;20252;-76
2022/09/15 00:40:44;;;;;;;15.93;11.80;;;;;;;;;;5036783;28;20212;-76
2022/09/15 00:43:12;;;;;;;16.97;11.77;;;;;;;;;;5051649;28;20287;-76
2022/09/15 00:45:41;;;;;;;18.13;12.37;;;;;;;;;;5051488;28;20608;-76
2022/09/15 00:48:12;;;;;;;15.83;12.10;;;;;;;;;;5055013;28;20211;-76
2022/09/15 00:50:42;;;;;;;15.33;12.20;;;;;;;;;;5045411;28;20669;-76
2022/09/15 00:53:12;;;;;;;15.43;12.27;;;;;;;;;;5055524;28;20704;-75
2022/09/15 00:55:42;;;;;;;15.33;11.90;;;;;;;;;;5054709;28;20219;-76
2022/09/15 00:58:12;;;;;;;16.17;12.37;;;;;;;;;;5055436;28;20247;-76
2022/09/15 01:00:44;;;;;;;17.13;12.30;;;;;;;;;;5054382;28;20199;-76
2022/09/15 01:03:13;;;;;;;15.97;11.83;;;;;;;;;;5053507;28;20209;-76
2022/09/15 01:05:43;;;;;;;16.63;12.17;;;;;;;;;;5055038;28;20358;-76
2022/09/15 01:08:15;;;;;;;18.70;13.23;;;;;;;;;;5054483;28;20199;-76
2022/09/15 01:10:45;;;;;;;19.50;12.43;;;;;;;;;;5055454;28;20203;-76
2022/09/15 01:13:14;;;;;;;16.23;11.90;;;;;;;;;;5055401;28;20730;-76
2022/09/15 01:15:46;;;;;;;18.13;12.03;;;;;;;;;;5055314;28;20229;-76
2022/09/15 01:18:17;;;;;;;16.70;11.93;;;;;;;;;;5054854;28;20280;-76
2022/09/15 01:21:02;;;;;;;18.37;11.87;;;;;;;;;;5049355;28;20287;-75
2022/09/15 01:23:58;;;;;;;15.23;11.77;;;;;;;;;;5043759;28;20286;-76
2022/09/15 01:26:47;;;;;;;15.50;12.27;;;;;;;;;;5053568;28;20230;-75
2022/09/15 01:29:25;;;;;;;16.33;11.47;;;;;;;;;;5040691;28;20207;-76
2022/09/15 01:34:44;;;;;;;17.70;11.20;;;;;;;;;;5044797;28;20203;-76
2022/09/15 01:37:16;;;;;;;15.43;10.97;;;;;;;;;;5055402;28;20310;-76
2022/09/15 01:39:45;;;;;;;14.77;11.43;;;;;;;;;;5041134;28;20625;-76
2022/09/15 01:42:15;;;;;;;14.23;11.33;;;;;;;;;;5055184;28;20378;-76
2022/09/15 01:44:47;;;;;;;15.87;10.43;;;;;;;;;;5050407;28;20239;-75
2022/09/15 01:47:16;;;;;;;15.43;10.63;;;;;;;;;;5052778;28;20341;-76
2022/09/15 01:49:49;;;;;;;14.37;10.57;;;;;;;;;;5054585;28;20302;-76
2022/09/15 01:52:18;;;;;;;15.03;10.27;;;;;;;;;;5045173;28;20224;-76
2022/09/15 01:54:49;;;;;;;14.80;10.53;;;;;;;;;;5045938;28;20199;-76
2022/09/15 01:57:32;;;;;;;14.77;10.17;;;;;;;;;;5012633;28;20608;-76
2022/09/15 02:00:02;;;;;;;13.43;10.23;;;;;;;;;;5012760;28;20295;-76
2022/09/15 02:02:32;;;;;;;13.67;9.90;;;;;;;;;;5013212;28;20309;-76
2022/09/15 02:05:03;;;;;;;13.80;9.77;;;;;;;;;;5012711;28;20204;-75
2022/09/15 02:07:35;;;;;;;16.60;9.77;;;;;;;;;;5012554;28;20197;-76
2022/09/15 02:10:06;;;;;;;13.67;9.67;;;;;;;;;;5012888;28;20545;-76
2022/09/15 02:12:37;;;;;;;12.63;9.50;;;;;;;;;;5012791;28;20302;-76
2022/09/15 02:15:10;;;;;;;13.87;9.63;;;;;;;;;;5012202;28;20655;-76
2022/09/15 02:17:42;;;;;;;13.07;8.60;;;;;;;;;;5011348;28;20311;-76
2022/09/15 02:20:14;;;;;;;12.97;8.60;;;;;;;;;;5012738;28;20295;-76
2022/09/15 02:22:45;;;;;;;10.10;7.50;;;;;;;;;;5011522;28;20323;-76
2022/09/15 02:25:16;;;;;;;11.07;7.07;;;;;;;;;;5012533;28;20287;-76
2022/09/15 02:27:48;;;;;;;10.73;7.67;;;;;;;;;;5020977;28;20275;-75
2022/09/15 02:30:19;;;;;;;13.87;7.07;;;;;;;;;;5053909;28;20726;-76
2022/09/15 02:32:49;;;;;;;9.43;6.90;;;;;;;;;;5050571;28;20318;-76
2022/09/15 02:35:18;;;;;;;11.77;7.60;;;;;;;;;;5045975;28;20253;-76
2022/09/15 02:37:47;;;;;;;11.00;7.57;;;;;;;;;;5052757;28;20305;-76
2022/09/15 02:40:15;;;;;;;10.80;7.53;;;;;;;;;;5053894;28;20294;-76
2022/09/15 02:42:55;;;;;;;12.57;7.70;;;;;;;;;;5048182;28;20328;-76
2022/09/15 02:45:26;;;;;;;12.23;8.83;;;;;;;;;;5044587;28;20417;-76
2022/09/15 02:47:55;;;;;;;11.90;9.17;;;;;;;;;;5048293;28;20278;-76
2022/09/15 02:50:25;;;;;;;16.43;9.97;;;;;;;;;;5040869;28;20324;-76
2022/09/15 02:52:54;;;;;;;12.77;9.57;;;;;;;;;;5052955;28;20223;-76
2022/09/15 02:55:23;;;;;;;13.63;10.30;;;;;;;;;;5052816;28;20578;-75
2022/09/15 02:57:52;;;;;;;12.53;9.20;;;;;;;;;;5051348;28;20242;-76
2022/09/15 03:00:20;;;;;;;11.87;8.70;;;;;;;;;;5054122;28;20550;-76
2022/09/15 03:02:52;;;;;;;12.03;7.83;;;;;;;;;;5044033;28;20319;-76
2022/09/15 03:05:21;;;;;;;15.53;8.17;;;;;;;;;;5049394;28;20234;-75
2022/09/15 03:07:50;;;;;;;15.40;7.70;;;;;;;;;;5052128;28;20231;-76
2022/09/15 03:10:18;;;;;;;11.30;7.90;;;;;;;;;;5052985;28;20229;-76
2022/09/15 03:12:48;;;;;;;11.03;7.10;;;;;;;;;;5052969;28;20759;-76
2022/09/15 03:15:17;;;;;;;11.17;7.40;;;;;;;;;;5038215;28;20253;-76
2022/09/15 03:17:46;;;;;;;9.53;7.23;;;;;;;;;;5046622;28;20630;-75
2022/09/15 03:20:17;;;;;;;11.07;7.43;;;;;;;;;;5046564;28;20293;-76
2022/09/15 03:22:46;;;;;;;11.03;7.30;;;;;;;;;;5053405;28;20310;-75
2022/09/15 03:25:15;;;;;;;9.43;6.97;;;;;;;;;;5052339;28;20214;-76
2022/09/15 03:27:44;;;;;;;9.97;6.73;;;;;;;;;;5053530;28;20615;-76
2022/09/15 03:30:13;;;;;;;11.60;6.57;;;;;;;;;;5052575;28;20239;-75
2022/09/15 03:32:41;;;;;;;11.83;6.60;;;;;;;;;;5033792;28;20315;-76
2022/09/15 03:35:10;;;;;;;8.93;6.10;;;;;;;;;;5038006;28;20235;-76
2022/09/15 03:37:40;;;;;;;8.97;6.67;;;;;;;;;;5043248;28;20654;-75
2022/09/15 03:40:09;;;;;;;7.40;5.90;;;;;;;;;;5044212;28;20294;-76
2022/09/15 03:42:38;;;;;;;8.63;5.73;;;;;;;;;;5034264;28;20220;-76
2022/09/15 03:45:06;;;;;;;8.00;5.97;;;;;;;;;;5046688;28;20254;-76
2022/09/15 03:47:35;;;;;;;10.10;6.17;;;;;;;;;;5052414;28;20245;-75
2022/09/15 03:50:03;;;;;;;11.60;6.10;;;;;;;;;;5042886;28;20295;-76
2022/09/15 03:52:32;;;;;;;12.47;6.97;;;;;;;;;;5037159;28;20313;-76
2022/09/15 03:55:02;;;;;;;8.53;6.37;;;;;;;;;;5053323;28;20214;-75
2022/09/15 03:57:30;;;;;;;8.83;6.40;;;;;;;;;;5044280;28;20314;-76
2022/09/15 03:59:58;;;;;;;8.87;6.33;;;;;;;;;;5043730;28;20238;-75
2022/09/15 04:02:27;;;;;;;10.77;6.23;;;;;;;;;;5053164;28;20276;-76
2022/09/15 04:04:55;;;;;;;9.77;6.00;;;;;;;;;;5046443;28;20664;-75
2022/09/15 04:07:24;;;;;;;8.73;6.60;;;;;;;;;;5052131;28;20223;-76
2022/09/15 04:09:53;;;;;;;11.63;6.90;;;;;;;;;;5041531;28;20257;-76
2022/09/15 04:12:22;;;;;;;8.23;5.80;;;;;;;;;;5048891;28;20658;-76
2022/09/15 04:14:51;;;;;;;9.70;6.50;;;;;;;;;;5040524;28;20287;-74
2022/09/15 04:17:19;;;;;;;8.13;6.00;;;;;;;;;;5051287;28;20291;-76
2022/09/15 04:19:48;;;;;;;8.00;5.87;;;;;;;;;;5051634;28;20720;-76
2022/09/15 04:22:16;;;;;;;11.23;6.37;;;;;;;;;;5052929;28;20318;-76
2022/09/15 04:24:46;;;;;;;7.03;5.80;;;;;;;;;;5043096;28;20215;-76
2022/09/15 04:27:15;;;;;;;7.30;5.60;;;;;;;;;;5033759;28;20207;-76
2022/09/15 04:29:45;;;;;;;8.60;5.70;;;;;;;;;;5032228;28;20212;-74
2022/09/15 04:32:13;;;;;;;8.57;6.20;;;;;;;;;;5051095;28;20310;-74
2022/09/15 04:34:42;;;;;;;9.07;6.40;;;;;;;;;;5048628;28;20243;-76
2022/09/15 04:37:11;;;;;;;8.53;6.50;;;;;;;;;;5050544;28;20310;-76
2022/09/15 04:39:39;;;;;;;10.13;6.10;;;;;;;;;;5039764;28;20258;-75
2022/09/15 04:42:07;;;;;;;8.73;6.07;;;;;;;;;;5055043;28;20629;-76
2022/09/15 04:44:36;;;;;;;7.30;5.70;;;;;;;;;;5050316;28;20669;-75
2022/09/15 04:47:06;;;;;;;7.67;6.00;;;;;;;;;;5045435;28;20200;-76
2022/09/15 04:49:34;;;;;;;8.67;6.10;;;;;;;;;;5046647;28;20199;-76
2022/09/15 04:52:03;;;;;;;8.20;5.53;;;;;;;;;;5052575;28;20302;-76
2022/09/15 04:54:36;;;;;;;7.40;5.77;;;;;;;;;;5050586;28;20206;-75
2022/09/15 04:57:05;;;;;;;8.13;5.70;;;;;;;;;;5048213;28;20228;-76
2022/09/15 04:59:33;;;;;;;8.77;5.30;;;;;;;;;;5056380;28;20231;-76
2022/09/15 05:02:02;;;;;;;10.93;5.40;;;;;;;;;;5042332;28;20266;-76
2022/09/15 05:04:31;;;;;;;6.10;5.40;;;;;;;;;;5052862;28;20234;-76
2022/09/15 05:07:00;;;;;;;7.13;5.47;;;;;;;;;;5054973;28;20231;-76
2022/09/15 05:09:29;;;;;;;8.27;5.77;;;;;;;;;;5055265;28;20238;-76
2022/09/15 05:11:58;;;;;;;7.27;5.60;;;;;;;;;;5055014;28;20261;-76
2022/09/15 05:14:26;;;;;;;10.57;6.27;;;;;;;;;;5055415;28;20249;-75
2022/09/15 05:16:55;;;;;;;10.10;5.87;;;;;;;;;;5051098;28;20286;-76
2022/09/15 05:19:23;;;;;;;8.10;5.53;;;;;;;;;;5040005;28;20250;-76
2022/09/15 05:21:53;;;;;;;8.57;5.97;;;;;;;;;;5046913;28;20250;-75
2022/09/15 05:24:22;;;;;;;12.23;5.60;;;;;;;;;;5072305;28;20239;-76
2022/09/15 05:26:50;;;;;;;9.80;6.00;;;;;;;;;;5055034;28;20199;-76
2022/09/15 05:29:18;;;;;;;8.27;5.73;;;;;;;;;;5055281;28;20707;-76
2022/09/15 05:31:47;;;;;;;7.93;5.57;;;;;;;;;;5054947;28;20766;-76
2022/09/15 05:34:15;;;;;;;8.73;5.80;;;;;;;;;;5045035;28;20253;-75
2022/09/15 05:36:44;;;;;;;9.17;5.70;;;;;;;;;;5035127;28;20208;-77
2022/09/15 05:39:14;;;;;;;6.67;5.53;;;;;;;;;;5039924;28;20259;-76
2022/09/15 05:41:42;;;;;;;9.13;5.60;;;;;;;;;;5054664;28;20235;-75
2022/09/15 05:44:11;;;;;;;10.63;6.00;;;;;;;;;;5054956;28;20269;-76
2022/09/15 05:46:39;;;;;;;7.77;5.57;;;;;;;;;;5054265;28;20257;-76
2022/09/15 05:49:08;;;;;;;7.80;5.93;;;;;;;;;;5055077;28;20584;-76
2022/09/15 05:51:37;;;;;;;10.87;5.90;;;;;;;;;;5054605;28;20594;-76
2022/09/15 05:54:05;;;;;;;7.70;5.87;;;;;;;;;;5055279;28;20203;-76
2022/09/15 05:56:35;;;;;;;9.23;5.33;;;;;;;;;;5054461;28;20302;-76
2022/09/15 05:59:03;;;;;;;8.40;5.10;;;;;;;;;;5054153;28;20314;-76
2022/09/15 06:01:32;;;;;;;9.57;5.77;;;;;;;;;;5054780;28;20262;-76
2022/09/15 06:04:00;;;;;;;10.60;5.57;;;;;;;;;;5054954;28;20614;-76
2022/09/15 06:06:28;;;;;;;7.57;5.20;;;;;;;;;;5054727;28;20258;-76
2022/09/15 06:08:58;;;;;;;8.40;5.97;;;;;;;;;;5055538;28;20245;-76
2022/09/15 06:11:28;;;;;;;9.03;4.63;;;;;;;;;;5054947;28;20584;-76
2022/09/15 06:14:01;;;;;;;9.47;5.33;;;;;;;;;;5042870;28;20692;-76
2022/09/15 06:16:32;;;;;;;9.33;5.90;;;;;;;;;;5038523;28;20204;-76
2022/09/15 06:19:01;;;;;;;9.67;5.70;;;;;;;;;;5055004;28;20203;-76
2022/09/15 06:21:30;;;;;;;8.73;5.70;;;;;;;;;;5055116;28;20708;-76
2022/09/15 06:23:59;;;;;;;7.83;5.07;;;;;;;;;;5054705;28;20250;-76
2022/09/15 06:26:28;;;;;;;9.73;5.10;;;;;;;;;;5054695;28;20264;-75
2022/09/15 06:28:58;;;;;;;7.80;4.60;;;;;;;;;;5055266;28;20231;-76
2022/09/15 06:31:30;;;;;;;7.50;5.07;;;;;;;;;;5054833;28;20744;-76
2022/09/15 06:33:59;;;;;;;9.37;5.13;;;;;;;;;;5054871;28;20235;-76
2022/09/15 06:36:28;;;;;;;9.90;5.50;;;;;;;;;;5054366;28;20226;-76
2022/09/15 06:38:57;;;;;;;9.03;5.63;;;;;;;;;;5054385;28;20747;-76
2022/09/15 06:41:27;;;;;;;7.87;5.20;;;;;;;;;;5053765;28;20238;-76
2022/09/15 06:44:10;;;;;;;8.00;5.50;;;;;;;;;;5039879;28;20199;-76
2022/09/15 06:46:39;;;;;;;8.83;5.00;;;;;;;;;;5053581;28;20211;-76
2022/09/15 06:49:08;;;;;;;7.50;4.90;;;;;;;;;;5054194;28;20653;-76
2022/09/15 06:51:37;;;;;;;8.63;5.07;;;;;;;;;;5053653;28;20313;-76
2022/09/15 06:54:05;;;;;;;8.87;5.17;;;;;;;;;;5054348;28;20286;-76
2022/09/15 06:56:34;;;;;;;8.60;5.17;;;;;;;;;;5052540;28;20281;-76
2022/09/15 06:59:05;;;;;;;10.77;5.23;;;;;;;;;;5033449;28;20223;-76
2022/09/15 07:01:34;;;;;;;5.43;4.50;;;;;;;;;;5033921;28;20219;-76
2022/09/15 07:04:05;;;;;;;7.07;4.53;;;;;;;;;;5045975;28;20298;-76
2022/09/15 07:06:34;;;;;;;8.17;4.60;;;;;;;;;;5038316;28;20200;-76
2022/09/15 07:09:03;;;;;;;7.13;3.90;;;;;;;;;;5034409;28;20227;-76
2022/09/15 07:11:31;;;;;;;5.20;3.80;;;;;;;;;;5034113;28;20227;-75
2022/09/15 07:14:00;;;;;;;7.30;3.60;;;;;;;;;;5034078;28;20278;-76
2022/09/15 07:16:29;;;;;;;7.53;3.63;;;;;;;;;;5037060;28;20591;-77
2022/09/15 07:19:00;;;;;;;8.10;3.80;;;;;;;;;;5053768;28;20306;-76
2022/09/15 07:21:30;;;;;;;5.93;3.70;;;;;;;;;;5053856;28;20262;-76
2022/09/15 07:23:58;;;;;;;4.93;3.63;;;;;;;;;;5053334;28;20294;-76
2022/09/15 07:26:33;;;;;;;5.60;3.50;;;;;;;;;;5045590;28;20621;-76
2022/09/15 07:29:03;;;;;;;5.87;3.40;;;;;;;;;;5033659;28;20558;-76
2022/09/15 07:31:32;;;;;;;7.00;3.73;;;;;;;;;;5033539;28;20266;-76
2022/09/15 07:34:01;;;;;;;7.77;3.53;;;;;;;;;;5033943;28;20251;-76
2022/09/15 07:36:31;;;;;;;6.40;3.33;;;;;;;;;;5050357;28;20317;-76
2022/09/15 07:39:00;;;;;;;7.43;3.57;;;;;;;;;;5053129;28;20219;-76
2022/09/15 07:41:29;;;;;;;7.50;3.27;;;;;;;;;;5052492;28;20250;-76
2022/09/15 07:43:58;;;;;;;4.77;3.00;;;;;;;;;;5053485;28;20237;-76
2022/09/15 07:46:28;;;;;;;6.33;3.30;;;;;;;;;;5053332;28;20226;-77
2022/09/15 07:48:56;;;;;;;6.33;3.40;;;;;;;;;;5053155;28;20290;-76
2022/09/15 07:51:25;;;;;;;8.33;3.40;;;;;;;;;;5053338;28;20219;-76
2022/09/15 07:53:55;;;;;;;7.67;3.13;;;;;;;;;;5053319;28;20293;-76
2022/09/15 07:56:23;;;;;;;11.20;2.87;;;;;;;;;;5052891;28;20751;-76
2022/09/15 07:58:52;;;;;;;4.90;2.70;;;;;;;;;;5053005;28;20241;-76
2022/09/15 08:01:21;;;;;;;7.47;2.40;;;;;;;;;;5053350;28;20311;-76
2022/09/15 08:03:51;;;;;;;6.37;2.40;;;;;;;;;;5052970;28;20218;-74
2022/09/15 08:06:20;;;;;;;5.20;2.50;;;;;;;;;;5053030;28;20716;-76
2022/09/15 08:08:49;;;;;;;4.07;2.00;;;;;;;;;;5052824;28;20294;-76
2022/09/15 08:11:25;;;;;;;5.23;2.30;;;;;;;;;;5048820;28;20322;-76
2022/09/15 08:13:53;;;;;;;5.63;2.30;;;;;;;;;;5036929;28;20207;-76
2022/09/15 08:16:23;;;;;;;7.73;2.23;;;;;;;;;;5038699;28;20211;-76
2022/09/15 08:18:52;;;;;;;6.13;2.30;;;;;;;;;;5056730;28;20209;-76
2022/09/15 08:21:21;;;;;;;5.77;2.00;;;;;;;;;;5056883;28;20596;-75
2022/09/15 08:23:54;;;;;;;10.03;2.23;;;;;;;;;;5056405;28;20207;-76
2022/09/15 08:26:25;;;;;;;3.30;1.60;;;;;;;;;;5056015;28;20242;-76
2022/09/15 08:28:53;;;;;;;4.83;1.83;;;;;;;;;;5056626;28;20187;-76
2022/09/15 08:31:23;;;;;;;5.53;1.90;;;;;;;;;;5056311;28;20273;-76
2022/09/15 08:33:53;;;;;;;5.13;1.70;;;;;;;;;;5056700;28;20221;-76
2022/09/15 08:36:23;;;;;;;6.83;2.00;;;;;;;;;;5056285;28;20294;-76
2022/09/15 08:38:51;;;;;;;3.67;1.60;;;;;;;;;;5056205;28;20202;-76
2022/09/15 08:41:23;;;;;;;5.33;1.90;;;;;;;;;;5056173;28;20254;-74
2022/09/15 08:43:55;;;;;;;5.67;2.10;;;;;;;;;;5055905;28;20229;-74
2022/09/15 08:46:27;;;;;;;7.40;2.20;;;;;;;;;;5055969;28;20290;-74
2022/09/15 08:48:59;;;;;;;6.97;2.10;;;;;;;;;;5056439;28;20207;-74
2022/09/15 08:51:32;;;;;;;5.53;2.03;;;;;;;;;;5055883;28;20355;-74
2022/09/15 08:54:03;;;;;;;7.10;1.70;;;;;;;;;;5055219;28;20243;-74
2022/09/15 08:56:32;;;;;;;6.37;1.83;;;;;;;;;;5055394;28;20269;-74
2022/09/15 08:59:02;;;;;;;6.40;1.73;;;;;;;;;;5055926;28;20207;-74
2022/09/15 09:01:38;;;;;;;5.17;1.73;;;;;;;;;;5056282;28;20267;-74
2022/09/15 09:04:31;;;;;;;5.53;1.80;;;;;;;;;;5055883;28;20550;-74
2022/09/15 09:07:07;;;;;;;6.35;1.48;;;;;;;;;;5055555;28;20202;-74
2022/09/15 09:09:43;;;;;;;5.32;1.40;;;;;;;;;;5043136;28;20238;-74
2022/09/15 09:12:29;;;;;;;6.50;1.63;;;;;;;;;;5036119;28;20285;-74
2022/09/15 09:15:04;;;;;;;5.80;1.98;;;;;;;;;;5035138;28;20299;-74
2022/09/15 09:17:40;;;;;;;6.88;1.70;;;;;;;;;;5046988;28;20302;-74
2022/09/15 09:20:28;;;;;;;5.60;1.70;;;;;;;;;;5055332;28;20307;-74
2022/09/15 09:22:58;;;;;;;6.70;1.52;;;;;;;;;;5054555;28;20653;-75
2022/09/15 09:25:26;;;;;;;2.90;1.50;;;;;;;;;;5040338;28;20237;-74
2022/09/15 09:27:57;;;;;;;4.43;1.50;;;;;;;;;;5055746;28;20222;-74
2022/09/15 09:30:29;;;;;;;5.15;1.60;;;;;;;;;;5055816;28;20662;-74
2022/09/15 09:33:09;;;;;;;4.43;1.60;;;;;;;;;;5055553;28;20266;-74
2022/09/15 09:35:41;;;;;;;6.35;1.60;;;;;;;;;;5054332;28;20712;-75
2022/09/15 09:38:09;;;;;;;4.45;1.40;;;;;;;;;;5055250;28;20188;-74
2022/09/15 09:40:40;;;;;;;5.10;1.50;;;;;;;;;;5055073;28;20310;-73
2022/09/15 09:43:09;;;;;;;4.13;1.65;;;;;;;;;;5055416;28;20227;-74
2022/09/15 09:45:38;;;;;;;4.40;1.38;;;;;;;;;;5055002;28;20199;-73
2022/09/15 09:48:14;;;;;;;4.50;1.70;;;;;;;;;;5054950;28;20245;-74
2022/09/15 09:50:43;;;;;;;5.43;1.50;;;;;;;;;;5053169;28;20713;-74
2022/09/15 09:53:19;;;;;;;6.82;1.42;;;;;;;;;;5054993;28;20231;-74
2022/09/15 09:55:48;;;;;;;6.05;1.42;;;;;;;;;;5055040;28;20237;-74
2022/09/15 09:58:19;;;;;;;4.35;1.33;;;;;;;;;;5055384;28;20730;-74
2022/09/15 10:00:49;;;;;;;7.40;1.77;;;;;;;;;;5054564;28;20285;-74
2022/09/15 10:03:18;;;;;;;4.53;1.30;;;;;;;;;;5054057;28;20326;-74
2022/09/15 10:06:00;;;;;;;7.30;1.67;;;;;;;;;;5054482;28;20707;-74
2022/09/15 10:08:29;;;;;;;7.00;1.50;;;;;;;;;;5054991;28;20249;-73
2022/09/15 10:11:02;;;;;;;6.93;1.25;;;;;;;;;;5054946;28;20241;-74
2022/09/15 10:13:31;;;;;;;4.53;1.33;;;;;;;;;;5054457;28;20241;-74
2022/09/15 10:16:01;;;;;;;5.40;1.65;;;;;;;;;;5054625;28;20253;-74
2022/09/15 10:18:32;;;;;;;2.60;1.30;;;;;;;;;;5054460;28;20227;-74
2022/09/15 10:21:01;;;;;;;3.85;1.40;;;;;;;;;;5053784;28;20219;-74
2022/09/15 10:23:30;;;;;;;4.82;1.35;;;;;;;;;;5054071;28;20302;-73
2022/09/15 10:26:19;;;;;;;5.68;1.50;;;;;;;;;;5053987;28;20315;-73
2022/09/15 10:29:10;;;;;;;6.97;1.60;;;;;;;;;;5054288;28;20567;-73
2022/09/15 10:31:40;;;;;;;9.93;1.90;;;;;;;;;;5053333;28;20218;-73
2022/09/15 10:34:29;;;;;;;6.90;1.63;;;;;;;;;;5053536;28;20253;-74
2022/09/15 10:37:06;;;;;;;7.20;1.77;;;;;;;;;;5053941;28;20218;-74
2022/09/15 10:39:39;;;;;;;9.45;1.83;;;;;;;;;;5054552;28;20202;-74
2022/09/15 10:42:11;;;;;;;5.90;1.50;;;;;;;;;;5054107;28;20719;-73
2022/09/15 10:44:44;;;;;;;4.03;1.45;;;;;;;;;;5053952;28;20274;-73
2022/09/15 10:47:21;;;;;;;4.78;1.35;;;;;;;;;;5053143;28;20295;-74
2022/09/15 10:49:53;;;;;;;7.28;1.50;;;;;;;;;;5053994;28;20246;-74
2022/09/15 10:52:27;;;;;;;6.05;1.50;;;;;;;;;;5053316;28;20314;-74
2022/09/15 10:55:04;;;;;;;5.85;1.40;;;;;;;;;;5053749;28;20187;-74
2022/09/15 10:57:39;;;;;;;3.80;1.35;;;;;;;;;;5054329;28;20624;-74
2022/09/15 11:00:10;;;;;;;3.45;1.17;;;;;;;;;;5053483;28;20203;-74
2022/09/15 11:02:51;;;;;;;4.75;1.40;;;;;;;;;;5053203;28;20636;-74
2022/09/15 11:05:25;;;;;;;4.10;1.50;;;;;;;;;;5053548;28;20275;-74
2022/09/15 11:08:00;;;;;;;5.57;1.40;;;;;;;;;;5053589;28;20282;-74
2022/09/15 11:10:31;;;;;;;6.38;1.80;;;;;;;;;;5054058;28;20262;-74
2022/09/15 11:13:04;;;;;;;3.80;1.30;;;;;;;;;;5053431;28;20317;-73
2022/09/15 11:15:38;;;;;;;7.50;1.63;;;;;;;;;;5053916;28;20270;-74
2022/09/15 11:18:15;;;;;;;4.32;1.73;;;;;;;;;;5052845;28;20199;-74
2022/09/15 11:21:04;;;;;;;3.40;1.23;;;;;;;;;;5053381;28;20314;-73
2022/09/15 11:23:35;;;;;;;5.45;1.30;;;;;;;;;;5053404;28;20294;-73
2022/09/15 11:26:06;;;;;;;6.30;1.38;;;;;;;;;;5053614;28;20724;-74
2022/09/15 11:28:35;;;;;;;6.35;1.20;;;;;;;;;;5053033;28;20239;-73
2022/09/15 11:31:06;;;;;;;4.32;1.50;;;;;;;;;;5052594;28;20294;-74
2022/09/15 11:33:40;;;;;;;4.25;1.48;;;;;;;;;;5053151;28;20203;-73
2022/09/15 11:36:10;;;;;;;5.05;1.15;;;;;;;;;;5052896;28;20297;-74
2022/09/15 11:38:46;;;;;;;4.25;1.02;;;;;;;;;;5053177;28;20293;-73
2022/09/15 11:41:18;;;;;;;6.30;1.30;;;;;;;;;;5053111;28;20261;-74
2022/09/15 11:43:51;;;;;;;4.07;1.50;;;;;;;;;;5052810;28;20293;-75
2022/09/15 11:46:24;;;;;;;3.78;1.30;;;;;;;;;;5057052;28;20285;-74
2022/09/15 11:48:58;;;;;;;4.55;1.00;;;;;;;;;;5056997;28;20264;-74
2022/09/15 11:51:27;;;;;;;7.15;1.60;;;;;;;;;;5056756;28;20225;-74
2022/09/15 11:53:58;;;;;;;2.75;1.15;;;;;;;;;;5057312;28;20248;-74
2022/09/15 11:56:30;;;;;;;3.35;1.08;;;;;;;;;;5057402;28;20260;-73
2022/09/15 11:59:03;;;;;;;2.35;1.23;;;;;;;;;;5056909;28;20688;-74
2022/09/15 12:01:35;;;;;;;2.30;1.20;;;;;;;;;;5055829;28;20231;-76
2022/09/15 12:04:06;;;;;;;2.83;1.02;;;;;;;;;;5055920;28;20200;-74
2022/09/15 12:06:39;;;;;;;4.75;1.10;;;;;;;;;;5056373;28;20191;-74
2022/09/15 12:09:13;;;;;;;5.65;1.35;;;;;;;;;;5052422;28;20198;-74
2022/09/15 12:11:43;;;;;;;3.95;1.25;;;;;;;;;;5056660;28;20305;-74
2022/09/15 12:14:15;;;;;;;4.22;1.42;;;;;;;;;;5056260;28;20226;-73
2022/09/15 12:16:44;;;;;;;5.85;1.40;;;;;;;;;;5056114;28;20239;-74
2022/09/15 12:19:17;;;;;;;3.45;1.30;;;;;;;;;;5056567;28;20250;-74
2022/09/15 12:21:51;;;;;;;3.17;1.30;;;;;;;;;;5055041;28;20267;-74
2022/09/15 12:24:24;;;;;;;7.03;1.40;;;;;;;;;;5056611;28;20202;-73
2022/09/15 12:26:52;;;;;;;4.32;1.00;;;;;;;;;;5056404;28;20294;-73
2022/09/15 12:29:31;;;;;;;5.95;1.45;;;;;;;;;;5056394;28;20664;-74
2022/09/15 12:32:19;;;;;;;2.50;1.20;;;;;;;;;;5056059;28;20223;-74
2022/09/15 12:34:59;;;;;;;4.40;1.48;;;;;;;;;;5056274;28;20234;-73
2022/09/15 12:37:38;;;;;;;3.86;1.39;;;;;;;;;;5036024;28;10000314;-74
2022/09/15 12:40:07;;;;;;;6.68;1.40;;;;;;;;;;5053642;28;20502;-74
2022/09/15 12:42:37;;;;;;;4.55;1.30;;;;;;;;;;5053618;28;20314;-74
2022/09/15 12:45:07;;;;;;;8.70;1.55;;;;;;;;;;5052263;28;20611;-74
2022/09/15 12:47:36;;;;;;;3.72;1.10;;;;;;;;;;5052079;28;20747;-74
2022/09/15 12:50:09;;;;;;;4.28;1.30;;;;;;;;;;5051382;28;20195;-74
2022/09/15 12:52:43;;;;;;;3.85;1.20;;;;;;;;;;5052054;28;20314;-74
2022/09/15 12:55:18;;;;;;;3.13;0.95;;;;;;;;;;5051762;28;20211;-74
2022/09/15 12:57:51;;;;;;;3.03;0.93;;;;;;;;;;5051246;28;20298;-74
2022/09/15 13:00:31;;;;;;;2.97;1.02;;;;;;;;;;5044273;28;20322;-74
2022/09/15 13:03:00;;;;;;;2.40;0.95;;;;;;;;;;5051602;28;20276;-74
2022/09/15 13:05:48;;;;;;;1.58;1.02;;;;;;;;;;5049581;28;20252;-73
2022/09/15 13:08:38;;;;;;;1.93;0.90;;;;;;;;;;5046183;28;20736;-74
2022/09/15 13:11:08;;;;;;;2.40;1.00;;;;;;;;;;5057184;28;20231;-73
2022/09/15 13:13:39;;;;;;;4.18;1.10;;;;;;;;;;5050352;28;20238;-74
2022/09/15 13:16:11;;;;;;;3.50;0.98;;;;;;;;;;5049121;28;20684;-74
2022/09/15 13:18:41;;;;;;;2.38;0.95;;;;;;;;;;5049779;28;20272;-74
2022/09/15 13:21:13;;;;;;;2.45;1.10;;;;;;;;;;5048438;28;20813;-74
2022/09/15 13:23:46;;;;;;;2.80;0.85;;;;;;;;;;5049009;28;20798;-74
2022/09/15 13:26:17;;;;;;;2.67;0.77;;;;;;;;;;5051886;28;20227;-74
2022/09/15 13:28:47;;;;;;;2.80;1.17;;;;;;;;;;5044527;28;20248;-74
2022/09/15 13:31:28;;;;;;;4.55;1.05;;;;;;;;;;5053938;28;20341;-74
2022/09/15 13:34:12;;;;;;;2.83;0.85;;;;;;;;;;5065933;28;20664;-74
2022/09/15 13:37:08;;;;;;;3.20;1.00;;;;;;;;;;5045361;28;20211;-74
2022/09/15 13:40:25;;;;;;;2.88;1.00;;;;;;;;;;5047749;28;20205;-74
2022/09/15 13:43:02;;;;;;;4.68;1.17;;;;;;;;;;5040842;28;20233;-74
2022/09/15 13:45:45;;;;;;;3.83;1.05;;;;;;;;;;5051264;28;20245;-74
2022/09/15 13:48:29;;;;;;;3.38;1.35;;;;;;;;;;5048042;28;20215;-74
2022/09/15 13:50:59;;;;;;;6.40;1.35;;;;;;;;;;5052036;28;20285;-74
2022/09/15 13:53:41;;;;;;;5.25;1.23;;;;;;;;;;5051730;28;20195;-73
2022/09/15 13:56:13;;;;;;;3.72;1.30;;;;;;;;;;5050150;28;20206;-74
2022/09/15 13:58:44;;;;;;;5.03;1.23;;;;;;;;;;5051051;28;20199;-74
2022/09/15 14:01:34;;;;;;;3.10;1.10;;;;;;;;;;5041560;28;20294;-73
2022/09/15 14:04:06;;;;;;;5.50;1.15;;;;;;;;;;5051693;28;20326;-74
2022/09/15 14:06:36;;;;;;;4.80;0.80;;;;;;;;;;5052012;28;20688;-74
2022/09/15 14:09:09;;;;;;;3.17;1.20;;;;;;;;;;5052799;28;20245;-73
2022/09/15 14:11:39;;;;;;;4.93;1.58;;;;;;;;;;5051632;28;20314;-73
2022/09/15 14:14:11;;;;;;;4.20;1.20;;;;;;;;;;5041152;28;20228;-74
2022/09/15 14:16:39;;;;;;;2.53;1.20;;;;;;;;;;5037617;28;20243;-73
2022/09/15 14:19:30;;;;;;;4.32;1.23;;;;;;;;;;5054450;28;20203;-73
2022/09/15 14:21:58;;;;;;;3.22;1.00;;;;;;;;;;5041446;28;20691;-74
2022/09/15 14:24:27;;;;;;;2.40;1.30;;;;;;;;;;5052885;28;20294;-74
2022/09/15 14:27:02;;;;;;;4.70;1.60;;;;;;;;;;5047860;28;20253;-73
2022/09/15 14:29:30;;;;;;;3.53;1.23;;;;;;;;;;5051202;28;20204;-73
2022/09/15 14:32:02;;;;;;;1.67;1.00;;;;;;;;;;5045764;28;20310;-73
2022/09/15 14:34:32;;;;;;;3.88;0.93;;;;;;;;;;5053589;28;20566;-73
2022/09/15 14:37:03;;;;;;;4.07;0.90;;;;;;;;;;5052777;28;20286;-74
2022/09/15 14:39:32;;;;;;;3.50;0.93;;;;;;;;;;5051641;28;20203;-73
2022/09/15 14:42:17;;;;;;;4.25;1.15;;;;;;;;;;5052751;28;20772;-73
2022/09/15 14:44:49;;;;;;;2.88;1.20;;;;;;;;;;5053826;28;20233;-73
2022/09/15 14:47:39;;;;;;;4.10;1.17;;;;;;;;;;5051921;28;20195;-74
2022/09/15 14:50:09;;;;;;;3.50;1.00;;;;;;;;;;5049101;28;20203;-73
2022/09/15 14:52:39;;;;;;;5.82;1.30;;;;;;;;;;5055222;28;20215;-73
2022/09/15 14:55:11;;;;;;;2.65;0.93;;;;;;;;;;5053712;28;20242;-73
2022/09/15 14:57:43;;;;;;;3.03;0.80;;;;;;;;;;5049798;28;20211;-74
2022/09/15 15:00:19;;;;;;;1.70;1.00;;;;;;;;;;5043449;28;20286;-73
2022/09/15 15:02:53;;;;;;;2.30;1.10;;;;;;;;;;5049236;28;20234;-74
2022/09/15 15:05:23;;;;;;;2.50;0.90;;;;;;;;;;5048695;28;20703;-74
2022/09/15 15:07:54;;;;;;;2.55;1.02;;;;;;;;;;5052636;28;20210;-74